Time;durP1;ratioP1;P1;durP2;ratioP2;P2;SDS_P1;SDS_P2;PMS_P1;PMS_P2;Temp;Humidity;BMP_temperature;BMP_pressure;BME280_temperature;BME280_humidity;BME280_pressure;Samples;Min_cycle;Max_cycle;Signal;HPM_P1;HPM_P2
2022/01/20 00:00:32;;;;;;;8.65;2.60;;;25.70;66.40;;;;;;5092536;28;20373;-79
2022/01/20 00:03:11;;;;;;;10.35;2.50;;;25.70;67.00;;;;;;5088326;28;20368;-85
2022/01/20 00:08:18;;;;;;;9.45;2.35;;;25.40;65.80;;;;;;5088543;28;20881;-81
2022/01/20 00:27:20;;;;;;;15.73;3.15;;;25.30;69.30;;;;;;5088395;28;20392;-86
2022/01/20 00:32:20;;;;;;;12.83;2.93;;;24.80;78.20;;;;;;5088161;28;20379;-78
2022/01/20 00:37:32;;;;;;;13.88;3.00;;;23.60;82.10;;;;;;5088558;28;20364;-80
2022/01/20 00:40:00;;;;;;;12.40;3.10;;;23.50;85.30;;;;;;5087742;28;20419;-81
2022/01/20 00:42:27;;;;;;;14.35;2.90;;;23.40;85.70;;;;;;5087907;28;20463;-79
2022/01/20 00:44:54;;;;;;;12.73;3.10;;;23.40;87.40;;;;;;5089745;28;20418;-81
2022/01/20 00:47:22;;;;;;;13.68;3.83;;;23.40;86.80;;;;;;5091528;28;20740;-78
2022/01/20 00:49:49;;;;;;;15.23;3.00;;;23.40;88.80;;;;;;5091533;28;20451;-82
2022/01/20 00:52:17;;;;;;;12.57;2.63;;;23.60;86.60;;;;;;5091889;28;20407;-80
2022/01/20 00:54:44;;;;;;;11.23;2.70;;;23.60;87.40;;;;;;5091366;28;20703;-79
2022/01/20 00:57:11;;;;;;;12.00;2.72;;;23.60;85.70;;;;;;5092417;28;20395;-82
2022/01/20 00:59:38;;;;;;;11.00;2.70;;;23.50;88.00;;;;;;5091831;28;20418;-78
2022/01/20 01:02:08;;;;;;;13.88;2.75;;;23.40;86.10;;;;;;5095164;28;20372;-79
2022/01/20 01:04:36;;;;;;;13.88;3.08;;;23.40;88.50;;;;;;5093468;28;20361;-83
2022/01/20 01:07:25;;;;;;;12.75;3.10;;;23.30;92.60;;;;;;5091713;28;20364;-80
2022/01/20 01:09:52;;;;;;;12.90;3.00;;;22.90;96.30;;;;;;5090994;28;20415;-80
2022/01/20 01:12:31;;;;;;;14.77;3.10;;;22.40;98.70;;;;;;5091142;28;20840;-83
2022/01/20 01:14:59;;;;;;;15.10;3.33;;;22.30;99.90;;;;;;5091038;28;20454;-84
2022/01/20 01:22:30;;;;;;;17.80;3.75;;;22.70;99.90;;;;;;5090930;28;20365;-85
2022/01/20 01:24:58;;;;;;;13.60;3.28;;;23.00;99.20;;;;;;5090710;28;20459;-83
2022/01/20 01:27:27;;;;;;;15.50;3.85;;;23.30;98.00;;;;;;5089464;28;20838;-84
2022/01/20 01:32:36;;;;;;;15.38;3.38;;;23.90;94.90;;;;;;5091042;28;20356;-84
2022/01/20 01:35:07;;;;;;;13.80;3.60;;;24.20;93.50;;;;;;5090637;28;20372;-84
2022/01/20 01:40:10;;;;;;;15.88;3.60;;;23.80;93.60;;;;;;5090369;28;20738;-82
2022/01/20 01:42:44;;;;;;;18.50;3.80;;;23.40;94.80;;;;;;5091170;28;20419;-79
2022/01/20 01:45:20;;;;;;;17.00;3.72;;;23.00;98.40;;;;;;5090454;28;20380;-85
2022/01/20 01:47:48;;;;;;;23.77;4.85;;;22.30;99.90;;;;;;5089691;28;20377;-85
2022/01/20 01:50:15;;;;;;;18.83;4.17;;;21.60;99.90;;;;;;5090255;28;20396;-84
2022/01/20 01:52:42;;;;;;;20.57;4.27;;;21.10;99.90;;;;;;5090549;28;20373;-93
2022/01/20 01:55:10;;;;;;;24.85;4.30;;;20.90;99.90;;;;;;5090028;28;20365;-79
2022/01/20 01:57:37;;;;;;;20.55;4.00;;;20.90;99.90;;;;;;5090423;28;20371;-77
2022/01/20 02:00:09;;;;;;;22.48;4.38;;;21.20;99.90;;;;;;5090105;28;20897;-86
2022/01/20 02:02:36;;;;;;;23.85;4.60;;;21.60;99.90;;;;;;5089951;28;20372;-84
2022/01/20 02:05:09;;;;;;;21.52;4.47;;;22.10;99.90;;;;;;5088512;28;20524;-81
2022/01/20 02:18:45;;;;;;;21.67;4.68;;;24.50;99.90;;;;;;5089975;28;20364;-80
2022/01/20 02:21:12;;;;;;;17.50;4.30;;;24.60;99.60;;;;;;5089773;28;20372;-84
2022/01/20 02:23:40;;;;;;;18.75;4.30;;;24.30;96.80;;;;;;5089577;28;20437;-84
2022/01/20 02:26:07;;;;;;;16.45;3.75;;;23.80;98.00;;;;;;5089630;28;20394;-84
2022/01/20 02:28:34;;;;;;;20.70;3.92;;;23.70;97.10;;;;;;5089514;28;20401;-83
2022/01/20 02:31:01;;;;;;;20.23;4.20;;;23.70;96.00;;;;;;5089528;28;20381;-84
2022/01/20 02:33:30;;;;;;;17.35;3.88;;;23.90;94.30;;;;;;5089777;28;20365;-81
2022/01/20 02:36:03;;;;;;;17.98;3.78;;;24.00;93.20;;;;;;5089401;28;20581;-82
2022/01/20 02:46:30;;;;;;;12.48;3.25;;;24.40;91.10;;;;;;5089637;28;20854;-85
2022/01/20 02:48:57;;;;;;;14.88;3.25;;;24.70;90.70;;;;;;5089200;28;20392;-83
2022/01/20 02:51:25;;;;;;;13.90;3.30;;;24.60;86.10;;;;;;5089334;28;20384;-86
2022/01/20 02:53:52;;;;;;;14.38;3.15;;;24.30;83.90;;;;;;5089242;28;20509;-89
2022/01/20 02:56:20;;;;;;;14.23;2.97;;;24.00;81.90;;;;;;5089177;28;20875;-84
2022/01/20 02:58:47;;;;;;;14.45;3.28;;;23.80;79.30;;;;;;5089119;28;20474;-83
2022/01/20 03:01:15;;;;;;;13.43;2.95;;;23.80;82.30;;;;;;5090968;28;20365;-82
2022/01/20 03:03:42;;;;;;;11.13;3.00;;;23.90;80.20;;;;;;5089992;28;20865;-81
2022/01/20 03:06:09;;;;;;;11.73;3.00;;;24.50;77.90;;;;;;5089125;28;20937;-83
2022/01/20 03:08:36;;;;;;;11.25;2.70;;;25.30;72.60;;;;;;5092221;28;20408;-88
2022/01/20 03:11:04;;;;;;;11.40;2.83;;;25.50;70.90;;;;;;5093727;28;20459;-86
2022/01/20 03:13:30;;;;;;;11.55;2.88;;;25.50;71.20;;;;;;5089167;28;20368;-83
2022/01/20 03:15:57;;;;;;;12.15;3.00;;;25.80;68.90;;;;;;5088929;28;20372;-85
2022/01/20 03:18:24;;;;;;;11.32;2.65;;;26.60;68.20;;;;;;5089955;28;20707;-90
2022/01/20 03:20:54;;;;;;;11.07;2.70;;;26.80;65.20;;;;;;5088653;28;20740;-86
2022/01/20 03:23:22;;;;;;;8.77;2.63;;;27.10;64.30;;;;;;5088615;28;20368;-87
2022/01/20 03:25:49;;;;;;;12.07;2.83;;;27.30;63.30;;;;;;5087683;28;20384;-87
2022/01/20 03:28:16;;;;;;;11.33;2.90;;;27.60;62.60;;;;;;5088661;28;20751;-83
2022/01/20 03:30:43;;;;;;;8.07;2.63;;;27.40;63.30;;;;;;5088955;28;20401;-85
2022/01/20 03:33:10;;;;;;;9.02;2.90;;;28.00;64.30;;;;;;5088733;28;20400;-81
2022/01/20 03:35:40;;;;;;;12.10;2.90;;;28.90;63.10;;;;;;5088650;28;20914;-82
2022/01/20 03:38:08;;;;;;;9.10;2.45;;;29.50;59.10;;;;;;5090976;28;20460;-87
2022/01/20 03:40:35;;;;;;;10.45;2.80;;;29.20;57.70;;;;;;5088278;28;20453;-85
2022/01/20 03:43:03;;;;;;;10.77;2.70;;;29.50;58.20;;;;;;5088653;28;20380;-84
2022/01/20 03:45:30;;;;;;;11.23;2.70;;;30.00;59.50;;;;;;5088404;28;20376;-81
2022/01/20 03:48:06;;;;;;;8.27;2.65;;;30.70;54.00;;;;;;5088988;28;20379;-84
2022/01/20 03:53:20;;;;;;;10.73;2.67;;;29.50;55.30;;;;;;5088898;28;20410;-86
2022/01/20 03:55:47;;;;;;;11.02;2.60;;;28.50;58.30;;;;;;5088469;28;20372;-88
2022/01/20 03:58:14;;;;;;;13.65;3.08;;;28.00;58.80;;;;;;5088390;28;20372;-81
2022/01/20 04:00:43;;;;;;;10.63;2.78;;;27.40;60.80;;;;;;5088714;28;20368;-82
2022/01/20 04:03:11;;;;;;;12.25;3.10;;;27.10;60.80;;;;;;5088313;28;20708;-85
2022/01/20 04:05:47;;;;;;;12.88;3.17;;;26.80;62.50;;;;;;5088129;28;20373;-86
2022/01/20 04:08:15;;;;;;;11.10;2.92;;;26.60;63.30;;;;;;5088291;28;20365;-83
2022/01/20 04:10:41;;;;;;;11.80;2.83;;;26.50;63.00;;;;;;5088115;28;20894;-84
2022/01/20 04:13:09;;;;;;;10.88;2.65;;;26.30;63.90;;;;;;5088267;28;20372;-83
2022/01/20 04:15:39;;;;;;;9.13;2.75;;;26.40;63.60;;;;;;5088200;28;20376;-82
2022/01/20 04:18:08;;;;;;;8.95;3.00;;;26.70;64.70;;;;;;5088668;28;20522;-83
2022/01/20 04:20:35;;;;;;;9.63;2.70;;;27.00;63.90;;;;;;5091985;28;20370;-83
2022/01/20 04:23:02;;;;;;;9.18;2.90;;;26.90;61.40;;;;;;5092168;28;20376;-85
2022/01/20 04:25:29;;;;;;;10.63;2.60;;;26.70;61.90;;;;;;5092008;28;20372;-86
2022/01/20 04:27:56;;;;;;;11.02;2.65;;;26.50;63.00;;;;;;5092031;28;20489;-86
2022/01/20 04:30:23;;;;;;;10.65;2.80;;;26.40;62.30;;;;;;5091648;28;20404;-85
2022/01/20 04:32:50;;;;;;;11.50;2.53;;;26.30;64.20;;;;;;5091735;28;20913;-84
2022/01/20 04:35:19;;;;;;;9.63;2.40;;;26.30;63.30;;;;;;5091869;28;20368;-83
2022/01/20 04:37:52;;;;;;;9.15;2.47;;;26.30;64.60;;;;;;5091747;28;20395;-82
2022/01/20 04:40:21;;;;;;;7.47;2.42;;;27.20;63.00;;;;;;5091544;28;20392;-83
2022/01/20 04:42:50;;;;;;;11.18;2.53;;;27.80;61.20;;;;;;5091660;28;20865;-82
2022/01/20 04:45:27;;;;;;;9.63;2.47;;;28.00;60.60;;;;;;5091663;28;20422;-83
2022/01/20 04:48:12;;;;;;;9.68;2.50;;;28.50;60.00;;;;;;5091519;28;20390;-81
2022/01/20 04:58:54;;;;;;;7.65;2.40;;;27.40;61.50;;;;;;5091977;28;20359;-83
2022/01/20 05:01:21;;;;;;;6.43;2.10;;;27.20;60.80;;;;;;5092080;28;20461;-84
2022/01/20 05:03:48;;;;;;;8.88;2.42;;;27.20;61.10;;;;;;5091099;28;20380;-81
2022/01/20 05:06:15;;;;;;;11.20;2.60;;;27.20;60.30;;;;;;5091136;28;20368;-81
2022/01/20 05:08:42;;;;;;;13.70;3.00;;;26.80;61.90;;;;;;5091190;28;22763;-79
2022/01/20 05:11:11;;;;;;;10.45;2.70;;;26.30;63.20;;;;;;5091275;28;20856;-83
2022/01/20 05:13:40;;;;;;;9.23;2.80;;;26.00;65.10;;;;;;5091247;28;20373;-82
2022/01/20 05:16:08;;;;;;;10.97;2.70;;;25.80;65.70;;;;;;5091217;28;20419;-81
2022/01/20 05:18:35;;;;;;;9.98;2.70;;;26.30;65.70;;;;;;5091015;28;20372;-82
2022/01/20 05:21:03;;;;;;;8.15;2.58;;;26.70;62.30;;;;;;5090910;28;20386;-83
2022/01/20 05:23:30;;;;;;;7.55;2.30;;;27.00;62.40;;;;;;5091086;28;20407;-82
2022/01/20 05:25:57;;;;;;;10.43;2.60;;;27.40;61.00;;;;;;5090767;28;20426;-80
2022/01/20 05:28:24;;;;;;;12.60;2.70;;;27.10;61.90;;;;;;5090820;28;20372;-83
2022/01/20 05:30:51;;;;;;;12.33;2.87;;;26.70;63.30;;;;;;5090032;28;20849;-80
2022/01/20 05:33:18;;;;;;;13.13;2.97;;;26.10;65.20;;;;;;5090714;28;20367;-82
2022/01/20 05:35:45;;;;;;;11.95;3.25;;;25.60;67.30;;;;;;5090906;28;20372;-82
2022/01/20 05:38:12;;;;;;;12.07;3.13;;;25.10;69.80;;;;;;5090854;28;20906;-82
2022/01/20 05:40:39;;;;;;;14.15;3.40;;;24.80;71.60;;;;;;5090409;28;20403;-82
2022/01/20 05:43:06;;;;;;;14.33;3.03;;;24.60;72.70;;;;;;5090525;28;20558;-85
2022/01/20 05:45:35;;;;;;;16.58;3.63;;;24.30;73.90;;;;;;5090530;28;20393;-83
2022/01/20 05:48:17;;;;;;;16.58;3.50;;;24.10;75.90;;;;;;5090489;28;20379;-83
2022/01/20 05:50:45;;;;;;;19.80;3.35;;;24.10;77.30;;;;;;5090336;28;20450;-84
2022/01/20 05:53:12;;;;;;;11.27;2.90;;;25.40;74.10;;;;;;5090716;28;20492;-83
2022/01/20 05:55:39;;;;;;;13.15;3.20;;;26.40;69.80;;;;;;5090279;28;20380;-84
2022/01/20 05:58:07;;;;;;;14.48;3.40;;;26.10;69.80;;;;;;5090565;28;20489;-84
2022/01/20 06:00:37;;;;;;;10.57;2.80;;;26.30;71.50;;;;;;5090099;28;20399;-83
2022/01/20 06:05:50;;;;;;;13.82;3.38;;;28.00;65.00;;;;;;5090619;28;20352;-82
2022/01/20 06:08:17;;;;;;;10.98;3.42;;;28.70;63.80;;;;;;5089961;28;20380;-81
2022/01/20 06:10:45;;;;;;;12.45;3.22;;;29.20;61.70;;;;;;5090047;28;20443;-83
2022/01/20 06:13:12;;;;;;;12.50;3.35;;;29.00;61.90;;;;;;5089887;28;20871;-81
2022/01/20 06:15:39;;;;;;;10.15;3.25;;;29.40;61.90;;;;;;5089976;28;20848;-83
2022/01/20 06:18:06;;;;;;;14.10;3.25;;;29.80;60.10;;;;;;5089721;28;20716;-82
2022/01/20 06:20:34;;;;;;;12.18;3.20;;;29.80;59.30;;;;;;5089822;28;20379;-83
2022/01/20 06:23:01;;;;;;;12.20;3.20;;;30.00;59.50;;;;;;5089921;28;20421;-83
2022/01/20 06:25:28;;;;;;;11.77;2.90;;;30.40;58.30;;;;;;5089578;28;20427;-83
2022/01/20 06:27:55;;;;;;;8.27;2.67;;;30.70;54.90;;;;;;5089723;28;20399;-83
2022/01/20 06:30:24;;;;;;;9.80;2.97;;;30.10;53.70;;;;;;5088317;28;20447;-83
2022/01/20 06:32:54;;;;;;;11.73;3.00;;;28.80;56.20;;;;;;5089501;28;20365;-82
2022/01/20 06:35:22;;;;;;;11.15;3.10;;;28.70;57.30;;;;;;5090157;28;20464;-84
2022/01/20 06:37:49;;;;;;;10.73;3.00;;;28.40;57.40;;;;;;5089474;28;20379;-79
2022/01/20 06:40:16;;;;;;;11.48;2.88;;;28.60;57.20;;;;;;5089373;28;20396;-82
2022/01/20 06:42:43;;;;;;;13.13;3.20;;;29.00;56.50;;;;;;5088506;28;20368;-81
2022/01/20 06:45:13;;;;;;;10.83;3.37;;;29.00;56.40;;;;;;5089595;28;20740;-82
2022/01/20 06:47:40;;;;;;;12.95;3.53;;;29.10;55.40;;;;;;5089194;28;20422;-83
2022/01/20 06:50:10;;;;;;;11.20;3.45;;;28.90;56.10;;;;;;5089237;28;20392;-82
2022/01/20 06:52:37;;;;;;;11.80;3.40;;;28.70;56.80;;;;;;5089224;28;20375;-83
2022/01/20 06:55:07;;;;;;;12.98;3.47;;;28.30;58.10;;;;;;5089163;28;20377;-82
2022/01/20 06:57:39;;;;;;;10.48;3.15;;;28.50;56.80;;;;;;5088936;28;20374;-83
2022/01/20 07:00:13;;;;;;;11.80;3.30;;;28.30;57.80;;;;;;5089794;28;20754;-83
2022/01/20 07:02:40;;;;;;;12.15;3.35;;;28.40;57.60;;;;;;5089267;28;20367;-84
2022/01/20 07:05:09;;;;;;;11.20;3.13;;;28.50;55.90;;;;;;5089237;28;20452;-82
2022/01/20 07:07:36;;;;;;;12.60;3.35;;;28.60;56.20;;;;;;5088996;28;20422;-83
2022/01/20 07:10:04;;;;;;;11.77;3.33;;;28.70;55.50;;;;;;5088995;28;20483;-83
2022/01/20 07:12:31;;;;;;;14.20;3.00;;;28.60;55.10;;;;;;5088951;28;20844;-82
2022/01/20 07:14:58;;;;;;;11.35;3.47;;;28.60;55.70;;;;;;5088997;28;20800;-87
2022/01/20 07:17:25;;;;;;;11.80;3.40;;;28.50;55.60;;;;;;5088307;28;20408;-83
2022/01/20 07:19:52;;;;;;;16.42;4.00;;;28.20;56.40;;;;;;5088840;28;20404;-82
2022/01/20 07:22:19;;;;;;;12.25;3.60;;;27.80;56.30;;;;;;5088780;28;20451;-84
2022/01/20 07:24:47;;;;;;;17.27;3.83;;;27.60;57.70;;;;;;5088730;28;20379;-85
2022/01/20 07:27:15;;;;;;;11.17;3.40;;;27.10;58.50;;;;;;5088665;28;20364;-85
2022/01/20 07:29:42;;;;;;;11.65;3.38;;;26.80;59.10;;;;;;5088844;28;20952;-84
2022/01/20 07:32:09;;;;;;;14.85;3.78;;;26.60;58.30;;;;;;5088728;28;20872;-83
2022/01/20 07:34:36;;;;;;;18.95;3.97;;;26.70;58.30;;;;;;5089148;28;20380;-83
2022/01/20 07:37:05;;;;;;;15.60;3.95;;;26.80;58.60;;;;;;5088544;28;20365;-84
2022/01/20 07:39:32;;;;;;;12.80;3.38;;;26.80;58.20;;;;;;5088609;28;20364;-82
2022/01/20 07:42:00;;;;;;;12.68;3.40;;;26.50;58.90;;;;;;5087194;28;20442;-82
2022/01/20 07:44:27;;;;;;;12.25;3.13;;;26.70;59.30;;;;;;5088588;28;20456;-84
2022/01/20 07:46:54;;;;;;;11.50;3.30;;;26.90;57.90;;;;;;5087364;28;20434;-83
2022/01/20 07:49:21;;;;;;;16.55;3.50;;;26.80;57.60;;;;;;5088109;28;20408;-83
2022/01/20 07:51:48;;;;;;;14.43;3.90;;;26.50;58.40;;;;;;5088413;28;20395;-83
2022/01/20 07:54:15;;;;;;;15.98;3.50;;;26.50;58.80;;;;;;5093250;28;20455;-84
2022/01/20 07:56:42;;;;;;;11.43;3.25;;;26.70;58.80;;;;;;5095079;28;20389;-84
2022/01/20 07:59:09;;;;;;;13.10;3.10;;;26.90;59.30;;;;;;5095180;28;20368;-83
2022/01/20 08:01:36;;;;;;;13.13;3.38;;;27.10;57.10;;;;;;5095201;28;20376;-84
2022/01/20 08:04:03;;;;;;;12.05;3.22;;;27.00;57.80;;;;;;5095353;28;20496;-84
2022/01/20 08:06:33;;;;;;;10.38;3.20;;;27.10;57.70;;;;;;5095082;28;20388;-84
2022/01/20 08:09:00;;;;;;;14.15;3.55;;;27.10;57.80;;;;;;5095023;28;20796;-84
2022/01/20 08:11:28;;;;;;;8.95;2.90;;;27.10;57.40;;;;;;5095019;28;20867;-84
2022/01/20 08:13:57;;;;;;;13.80;3.22;;;27.00;57.90;;;;;;5095038;28;20376;-84
2022/01/20 08:16:24;;;;;;;13.82;3.17;;;26.90;57.90;;;;;;5095038;28;20422;-84
2022/01/20 08:18:53;;;;;;;12.63;3.13;;;26.50;58.50;;;;;;5094921;28;20455;-83
2022/01/20 08:21:20;;;;;;;13.73;3.60;;;25.90;59.20;;;;;;5094832;28;20459;-84
2022/01/20 08:23:50;;;;;;;13.88;3.47;;;25.30;62.00;;;;;;5093671;28;20398;-84
2022/01/20 08:26:17;;;;;;;13.95;3.33;;;24.80;62.60;;;;;;5094894;28;20392;-84
2022/01/20 08:28:44;;;;;;;15.27;3.40;;;24.30;63.80;;;;;;5094859;28;20368;-84
2022/01/20 08:31:11;;;;;;;13.40;3.25;;;23.90;65.60;;;;;;5095216;28;20384;-85
2022/01/20 08:33:46;;;;;;;14.52;3.38;;;23.50;66.10;;;;;;5094835;28;20375;-83
2022/01/20 08:36:13;;;;;;;13.65;3.30;;;23.20;66.90;;;;;;5093604;28;20388;-85
2022/01/20 08:38:40;;;;;;;15.75;3.30;;;22.80;68.30;;;;;;5094848;28;20428;-84
2022/01/20 08:41:07;;;;;;;13.23;3.10;;;22.60;69.60;;;;;;5093166;28;20731;-84
2022/01/20 08:43:38;;;;;;;16.02;3.38;;;22.50;71.50;;;;;;5094697;28;20421;-84
2022/01/20 08:46:10;;;;;;;13.47;3.27;;;21.50;71.40;;;;;;5093420;28;20464;-84
2022/01/20 08:48:39;;;;;;;17.55;3.38;;;22.10;72.90;;;;;;5094460;28;20739;-84
2022/01/20 08:51:07;;;;;;;14.75;3.60;;;22.00;74.10;;;;;;5094675;28;20403;-83
2022/01/20 08:53:35;;;;;;;15.50;3.60;;;21.80;75.70;;;;;;5094707;28;20871;-84
2022/01/20 08:56:03;;;;;;;20.33;3.97;;;21.80;76.80;;;;;;5094862;28;20384;-86
2022/01/20 08:58:30;;;;;;;19.20;3.90;;;21.70;78.00;;;;;;5094611;28;20731;-84
2022/01/20 09:00:57;;;;;;;15.90;3.60;;;21.60;79.40;;;;;;5095473;28;20727;-83
2022/01/20 09:03:24;;;;;;;15.35;3.63;;;21.50;80.70;;;;;;5094502;28;20863;-82
2022/01/20 09:05:51;;;;;;;15.88;3.65;;;21.50;82.00;;;;;;5090983;28;20384;-83
2022/01/20 09:08:21;;;;;;;18.17;3.78;;;21.50;83.40;;;;;;5091399;28;20363;-83
2022/01/20 09:10:54;;;;;;;19.52;3.70;;;21.40;85.40;;;;;;5091234;28;20392;-82
2022/01/20 09:16:12;;;;;;;17.17;3.90;;;21.30;89.60;;;;;;5091428;28;20367;-84
2022/01/20 09:18:40;;;;;;;18.80;4.22;;;21.20;91.30;;;;;;5091032;28;20423;-84
2022/01/20 09:21:06;;;;;;;21.20;4.17;;;21.20;92.70;;;;;;5090632;28;20445;-84
2022/01/20 09:23:33;;;;;;;22.25;4.20;;;21.10;94.40;;;;;;5090861;28;20520;-85
2022/01/20 09:26:00;;;;;;;17.58;4.20;;;21.10;95.60;;;;;;5090930;28;20381;-85
2022/01/20 09:28:31;;;;;;;22.05;4.38;;;21.00;96.70;;;;;;5090910;28;20372;-83
2022/01/20 09:31:02;;;;;;;21.08;4.28;;;20.90;98.30;;;;;;5090965;28;20948;-84
2022/01/20 09:33:29;;;;;;;21.85;4.90;;;20.80;99.50;;;;;;5090920;28;20731;-83
2022/01/20 09:35:58;;;;;;;24.35;4.80;;;20.70;99.90;;;;;;5090918;28;20385;-83
2022/01/20 09:38:27;;;;;;;22.10;4.30;;;20.70;99.90;;;;;;5090652;28;20873;-83
2022/01/20 09:40:57;;;;;;;20.58;4.53;;;20.70;99.90;;;;;;5090530;28;20457;-82
2022/01/20 09:43:24;;;;;;;21.70;4.32;;;20.60;99.90;;;;;;5090609;28;20414;-82
2022/01/20 09:45:55;;;;;;;28.15;4.88;;;20.60;99.90;;;;;;5090979;28;20716;-82
2022/01/20 09:48:28;;;;;;;25.90;4.50;;;20.60;99.90;;;;;;5091013;28;20379;-84
2022/01/20 09:50:59;;;;;;;23.87;4.30;;;20.50;99.90;;;;;;5090551;28;20404;-83
2022/01/20 09:53:29;;;;;;;21.50;4.30;;;20.40;99.90;;;;;;5090333;28;20384;-83
2022/01/20 09:55:57;;;;;;;23.85;4.70;;;20.40;99.90;;;;;;5090414;28;20412;-84
2022/01/20 09:58:27;;;;;;;22.67;4.45;;;20.40;99.90;;;;;;5089041;28;20387;-82
2022/01/20 10:00:58;;;;;;;25.23;4.47;;;20.30;99.90;;;;;;5090305;28;20364;-83
2022/01/20 10:03:27;;;;;;;25.58;4.72;;;20.30;99.90;;;;;;5090282;28;20369;-84
2022/01/20 10:05:55;;;;;;;24.00;4.70;;;20.30;99.90;;;;;;5090319;28;20743;-82
2022/01/20 10:08:25;;;;;;;21.63;4.22;;;20.30;99.90;;;;;;5090211;28;20451;-83
2022/01/20 10:11:06;;;;;;;20.98;4.30;;;20.20;99.90;;;;;;5090252;28;20431;-85
2022/01/20 10:13:42;;;;;;;21.10;4.00;;;20.20;99.90;;;;;;5090237;28;20365;-83
2022/01/20 10:16:10;;;;;;;21.30;4.32;;;20.20;99.90;;;;;;5090029;28;20942;-83
2022/01/20 10:19:00;;;;;;;18.08;3.90;;;20.20;99.90;;;;;;5090053;28;20933;-85
2022/01/20 10:21:34;;;;;;;20.13;4.15;;;20.20;99.90;;;;;;5089987;28;20380;-83
2022/01/20 10:24:10;;;;;;;23.83;4.40;;;20.20;99.90;;;;;;5091564;28;20689;-84
2022/01/20 10:26:38;;;;;;;18.75;4.25;;;20.30;99.90;;;;;;5091682;28;20463;-84
2022/01/20 10:29:16;;;;;;;22.20;4.22;;;20.20;99.90;;;;;;5090015;28;20395;-84
2022/01/20 10:31:51;;;;;;;18.13;4.30;;;20.20;99.90;;;;;;5090081;28;21010;-84
2022/01/20 10:34:35;;;;;;;22.80;4.53;;;20.30;99.90;;;;;;5090089;28;20408;-82
2022/01/20 10:37:07;;;;;;;23.95;4.32;;;20.20;99.90;;;;;;5089703;28;20885;-84
2022/01/20 10:39:44;;;;;;;24.95;4.80;;;20.30;99.90;;;;;;5089477;28;20373;-84
2022/01/20 10:42:14;;;;;;;23.38;4.25;;;20.20;99.90;;;;;;5089676;28;20840;-84
2022/01/20 10:44:58;;;;;;;27.50;4.53;;;20.20;99.90;;;;;;5089545;28;20422;-84
2022/01/20 10:47:31;;;;;;;25.65;4.40;;;20.20;99.90;;;;;;5089578;28;20364;-84
2022/01/20 10:50:10;;;;;;;20.60;4.57;;;20.30;99.90;;;;;;5088301;28;20422;-84
2022/01/20 10:52:43;;;;;;;22.60;4.57;;;20.20;99.90;;;;;;5089716;28;20458;-84
2022/01/20 10:55:24;;;;;;;19.57;4.33;;;20.10;99.90;;;;;;5089357;28;20369;-84
2022/01/20 10:57:53;;;;;;;23.73;4.82;;;20.20;99.90;;;;;;5089314;28;20360;-84
2022/01/20 11:00:23;;;;;;;23.03;4.40;;;20.20;99.90;;;;;;5089410;28;20376;-83
2022/01/20 11:02:54;;;;;;;22.25;4.10;;;20.10;99.90;;;;;;5089205;28;20372;-84
2022/01/20 11:05:23;;;;;;;25.65;4.47;;;20.00;99.90;;;;;;5089267;28;20448;-84
2022/01/20 11:07:52;;;;;;;22.23;4.60;;;19.90;99.90;;;;;;5089235;28;20372;-83
2022/01/20 11:10:19;;;;;;;26.38;4.60;;;19.90;99.90;;;;;;5089052;28;20396;-84
2022/01/20 11:12:47;;;;;;;23.88;4.82;;;19.90;99.90;;;;;;5089193;28;20437;-84
2022/01/20 11:15:18;;;;;;;22.77;4.30;;;19.80;99.90;;;;;;5089190;28;20477;-83
2022/01/20 11:17:52;;;;;;;23.80;4.47;;;19.80;99.90;;;;;;5089048;28;20360;-85
2022/01/20 11:20:26;;;;;;;26.67;4.70;;;19.70;99.90;;;;;;5087594;28;20471;-82
2022/01/20 11:23:00;;;;;;;22.08;4.57;;;19.60;99.90;;;;;;5089192;28;20901;-82
2022/01/20 11:25:35;;;;;;;26.13;4.70;;;19.60;99.90;;;;;;5088863;28;20380;-83
2022/01/20 11:28:10;;;;;;;28.20;5.00;;;19.60;99.90;;;;;;5088509;28;20414;-84
2022/01/20 11:30:42;;;;;;;24.85;5.03;;;19.70;99.90;;;;;;5088740;28;20407;-83
2022/01/20 11:33:08;;;;;;;25.33;4.78;;;19.70;99.90;;;;;;5088784;28;20365;-83
2022/01/20 11:35:58;;;;;;;25.67;5.00;;;19.60;99.90;;;;;;5088779;28;20378;-82
2022/01/20 11:38:49;;;;;;;23.35;4.70;;;19.60;99.90;;;;;;5088653;28;20353;-84
2022/01/20 11:41:22;;;;;;;32.60;4.82;;;19.60;99.90;;;;;;5088481;28;20389;-83
2022/01/20 11:43:51;;;;;;;27.13;4.90;;;19.60;99.90;;;;;;5088706;28;20436;-86
2022/01/20 11:46:24;;;;;;;31.77;4.70;;;19.60;99.90;;;;;;5088875;28;20365;-85
2022/01/20 11:49:06;;;;;;;32.67;5.37;;;19.60;99.90;;;;;;5088505;28;20372;-84
2022/01/20 11:51:47;;;;;;;39.47;5.90;;;19.60;99.90;;;;;;5088483;28;20414;-83
2022/01/20 11:54:35;;;;;;;35.10;5.20;;;19.70;99.90;;;;;;5088502;28;20762;-83
2022/01/20 11:57:09;;;;;;;40.55;5.80;;;19.70;99.90;;;;;;5088505;28;20899;-83
2022/01/20 12:00:06;;;;;;;36.50;5.45;;;19.80;99.90;;;;;;5088584;28;20379;-86
2022/01/20 12:02:38;;;;;;;35.08;5.95;;;19.80;99.90;;;;;;5079976;28;20388;-86
2022/01/20 12:05:27;;;;;;;33.85;5.78;;;19.80;99.90;;;;;;5088742;28;20376;-84
2022/01/20 12:08:19;;;;;;;40.72;6.07;;;19.70;99.90;;;;;;5088643;28;20368;-85
2022/01/20 12:11:09;;;;;;;40.83;5.95;;;19.70;99.90;;;;;;5088343;28;20399;-84
2022/01/20 12:13:57;;;;;;;38.77;6.23;;;19.80;99.90;;;;;;5088630;28;20877;-82
2022/01/20 12:16:25;;;;;;;28.42;4.80;;;19.80;99.90;;;;;;5088172;28;20440;-83
2022/01/20 12:19:00;;;;;;;24.70;4.32;;;19.90;99.90;;;;;;5088249;28;20364;-84
2022/01/20 12:21:30;;;;;;;23.02;4.70;;;19.90;99.90;;;;;;5088725;28;20458;-84
2022/01/20 12:23:58;;;;;;;21.00;4.38;;;19.80;99.90;;;;;;5088708;28;20356;-84
2022/01/20 12:26:25;;;;;;;20.50;4.30;;;19.80;99.90;;;;;;5088088;28;20372;-85
2022/01/20 12:29:11;;;;;;;18.85;4.15;;;19.80;99.90;;;;;;5088105;28;20421;-85
2022/01/20 12:31:50;;;;;;;25.10;4.45;;;19.70;99.90;;;;;;5088148;28;20976;-83
2022/01/20 12:34:19;;;;;;;21.20;4.45;;;19.80;99.90;;;;;;5087961;28;20368;-83
2022/01/20 12:36:56;;;;;;;22.67;4.63;;;19.70;99.90;;;;;;5087955;28;20849;-84
2022/01/20 12:39:32;;;;;;;24.63;4.85;;;19.70;99.90;;;;;;5088184;28;20765;-83
2022/01/20 12:42:06;;;;;;;29.23;5.28;;;19.70;99.90;;;;;;5091709;28;20381;-83
2022/01/20 12:45:02;;;;;;;26.00;4.95;;;19.60;99.90;;;;;;5091755;28;20379;-83
2022/01/20 12:47:30;;;;;;;25.65;5.22;;;19.60;99.90;;;;;;5091811;28;20364;-84
2022/01/20 12:50:00;;;;;;;26.88;4.47;;;19.60;99.90;;;;;;5091748;28;20491;-86
2022/01/20 12:52:27;;;;;;;26.45;4.57;;;19.50;99.90;;;;;;5091772;28;20464;-84
2022/01/20 12:54:54;;;;;;;25.23;4.60;;;19.30;99.90;;;;;;5091652;28;20376;-84
2022/01/20 12:57:22;;;;;;;24.95;4.53;;;19.10;99.90;;;;;;5092498;28;20455;-83
2022/01/20 12:59:49;;;;;;;24.75;4.63;;;19.00;99.90;;;;;;5091631;28;20368;-84
2022/01/20 13:02:23;;;;;;;27.33;4.70;;;18.90;99.90;;;;;;5091622;28;20373;-84
2022/01/20 13:04:56;;;;;;;26.48;4.65;;;18.90;99.90;;;;;;5091524;28;20380;-84
2022/01/20 13:07:24;;;;;;;26.85;4.75;;;18.80;99.90;;;;;;5091411;28;20863;-81
2022/01/20 13:10:02;;;;;;;20.67;4.38;;;18.70;99.90;;;;;;5091251;28;20436;-82
2022/01/20 13:12:38;;;;;;;24.60;4.80;;;18.70;99.90;;;;;;5091548;28;20874;-82
2022/01/20 13:15:07;;;;;;;25.35;4.70;;;18.60;99.90;;;;;;5091373;28;20368;-84
2022/01/20 13:17:35;;;;;;;26.02;4.88;;;18.60;99.90;;;;;;5091377;28;20394;-83
2022/01/20 13:20:19;;;;;;;24.55;4.57;;;18.60;99.90;;;;;;5091213;28;20405;-83
2022/01/20 13:22:56;;;;;;;24.27;4.40;;;18.60;99.90;;;;;;5091115;28;20365;-85
2022/01/20 13:25:29;;;;;;;22.45;4.55;;;18.60;99.90;;;;;;5091015;28;20929;-83
2022/01/20 13:27:55;;;;;;;29.60;5.00;;;18.60;99.90;;;;;;5091747;28;20361;-84
2022/01/20 13:30:48;;;;;;;22.53;4.40;;;18.50;99.90;;;;;;5091433;28;20525;-84
2022/01/20 13:33:18;;;;;;;22.85;4.60;;;18.50;99.90;;;;;;5091168;28;20435;-85
2022/01/20 13:35:47;;;;;;;25.85;4.43;;;18.40;99.90;;;;;;5091154;28;20387;-83
2022/01/20 13:38:15;;;;;;;24.08;4.88;;;18.50;99.90;;;;;;5091102;28;20365;-83
2022/01/20 13:40:48;;;;;;;24.67;4.75;;;18.40;99.90;;;;;;5089789;28;20481;-84
2022/01/20 13:46:04;;;;;;;27.50;4.95;;;18.30;99.90;;;;;;5091239;28;20716;-83
2022/01/20 13:48:32;;;;;;;25.65;4.63;;;18.30;99.90;;;;;;5090686;28;20395;-84
2022/01/20 13:51:01;;;;;;;26.95;4.60;;;18.30;99.90;;;;;;5090005;28;20449;-83
2022/01/20 13:53:30;;;;;;;26.25;4.65;;;18.20;99.90;;;;;;5090607;28;20787;-84
2022/01/20 13:56:01;;;;;;;21.30;4.30;;;18.20;99.90;;;;;;5090784;28;20372;-84
2022/01/20 13:58:30;;;;;;;25.23;4.90;;;18.20;99.90;;;;;;5091494;28;20364;-84
2022/01/20 14:01:01;;;;;;;25.05;4.78;;;18.10;99.90;;;;;;5092619;28;20742;-84
2022/01/20 14:03:28;;;;;;;22.50;4.47;;;18.10;99.90;;;;;;5091033;28;20735;-83
2022/01/20 14:05:55;;;;;;;25.92;4.78;;;18.10;99.90;;;;;;5090575;28;20421;-83